Time;durP1;ratioP1;P1;durP2;ratioP2;P2;SDS_P1;SDS_P2;PMS_P1;PMS_P2;Temp;Humidity;BMP_temperature;BMP_pressure;BME280_temperature;BME280_humidity;BME280_pressure;Samples;Min_cycle;Max_cycle;Signal;HPM_P1;HPM_P2
2023/04/26 00:00:07;;;;;;;6.07;3.13;;;23.50;43.40;;;;;;7615221;22;82109;-60
2023/04/26 00:03:08;;;;;;;4.78;3.00;;;23.50;43.40;;;;;;7642701;22;80095;-60
2023/04/26 00:06:09;;;;;;;4.60;2.90;;;23.50;43.30;;;;;;7643071;22;80141;-60
2023/04/26 00:09:09;;;;;;;4.85;2.72;;;23.50;43.20;;;;;;7643614;22;80362;-60
2023/04/26 00:12:10;;;;;;;4.30;2.72;;;23.50;43.20;;;;;;7643122;22;87488;-60
2023/04/26 00:15:11;;;;;;;5.07;2.58;;;23.50;43.10;;;;;;7643557;22;80270;-54
2023/04/26 00:18:11;;;;;;;6.63;2.83;;;23.50;43.10;;;;;;7643026;22;80537;-55
2023/04/26 00:21:12;;;;;;;5.15;2.55;;;23.50;43.00;;;;;;7644154;22;80430;-56
2023/04/26 00:24:12;;;;;;;5.75;2.95;;;23.50;43.10;;;;;;7642660;22;81265;-54
2023/04/26 00:27:13;;;;;;;5.15;2.38;;;23.50;43.00;;;;;;7616154;22;81392;-54
2023/04/26 00:30:14;;;;;;;4.20;2.30;;;23.50;43.10;;;;;;7641803;22;80039;-54
2023/04/26 00:33:14;;;;;;;6.13;2.75;;;23.40;43.00;;;;;;7644247;22;80992;-60
2023/04/26 00:36:18;;;;;;;5.30;2.38;;;23.40;42.90;;;;;;7615947;22;81856;-60
2023/04/26 00:39:18;;;;;;;6.38;2.40;;;23.40;43.60;;;;;;7643583;22;80186;-61
2023/04/26 00:42:19;;;;;;;4.28;2.33;;;23.50;42.90;;;;;;7642848;22;81348;-61
2023/04/26 00:45:19;;;;;;;4.45;2.63;;;23.50;43.00;;;;;;7616761;22;83181;-62
2023/04/26 00:48:20;;;;;;;5.75;2.75;;;23.50;43.00;;;;;;7616308;22;83157;-61
2023/04/26 00:51:20;;;;;;;6.13;2.60;;;23.50;43.10;;;;;;7642822;22;79908;-62
2023/04/26 00:54:21;;;;;;;4.78;2.15;;;23.50;43.10;;;;;;7615819;22;82868;-62
2023/04/26 00:57:22;;;;;;;4.88;2.47;;;23.50;43.00;;;;;;7643246;22;80295;-60
2023/04/26 01:00:22;;;;;;;4.70;2.50;;;23.50;43.00;;;;;;7642913;22;81684;-60
2023/04/26 01:03:23;;;;;;;5.65;2.47;;;23.50;42.90;;;;;;7642439;22;80466;-60
2023/04/26 01:06:23;;;;;;;6.55;2.40;;;23.50;42.80;;;;;;7615371;22;83649;-60
2023/04/26 01:09:24;;;;;;;3.42;2.10;;;23.50;42.80;;;;;;7643011;22;80488;-59
2023/04/26 01:12:25;;;;;;;4.05;2.03;;;23.40;42.60;;;;;;7615241;22;81412;-60
2023/04/26 01:15:27;;;;;;;6.43;2.55;;;23.40;42.60;;;;;;7615768;22;82113;-61
2023/04/26 01:18:27;;;;;;;4.43;2.13;;;23.40;42.70;;;;;;7618035;22;82124;-61
2023/04/26 01:21:28;;;;;;;5.63;2.35;;;23.40;42.60;;;;;;7644121;22;80592;-61
2023/04/26 01:24:29;;;;;;;4.10;2.55;;;23.40;42.50;;;;;;7616884;22;81462;-60
2023/04/26 01:27:30;;;;;;;3.67;2.47;;;23.40;42.50;;;;;;7612076;22;80766;-59
2023/04/26 01:30:30;;;;;;;4.13;2.45;;;23.40;42.40;;;;;;7643164;22;80970;-60
2023/04/26 01:33:30;;;;;;;6.60;2.08;;;23.40;42.20;;;;;;7644383;22;80297;-59
2023/04/26 01:36:32;;;;;;;6.25;2.15;;;23.40;42.10;;;;;;7615744;22;81786;-60
2023/04/26 01:39:33;;;;;;;6.60;2.40;;;23.40;42.00;;;;;;7643639;22;81206;-59
2023/04/26 01:42:33;;;;;;;4.00;2.10;;;23.40;41.90;;;;;;7616193;22;81535;-60
2023/04/26 01:45:34;;;;;;;3.70;1.98;;;23.40;41.90;;;;;;7644379;22;80510;-60
2023/04/26 01:48:53;;;;;;;4.95;2.28;;;23.40;41.70;;;;;;7642973;22;83444;-61
2023/04/26 01:51:56;;;;;;;7.10;2.92;;;23.40;41.80;;;;;;7617235;22;83374;-62
2023/04/26 01:54:57;;;;;;;6.70;2.40;;;23.30;41.70;;;;;;7617356;22;83342;-61
2023/04/26 01:57:58;;;;;;;4.78;2.15;;;23.30;41.60;;;;;;7592201;22;83330;-61
2023/04/26 02:00:58;;;;;;;5.25;1.98;;;23.30;41.30;;;;;;7616771;22;82115;-61
2023/04/26 02:03:59;;;;;;;3.95;2.47;;;23.30;41.30;;;;;;7644296;22;80388;-61
2023/04/26 02:07:00;;;;;;;3.20;1.98;;;23.30;41.40;;;;;;7643658;22;80486;-59
2023/04/26 02:10:00;;;;;;;5.80;2.53;;;23.30;41.40;;;;;;7618148;22;82957;-59
2023/04/26 02:13:01;;;;;;;4.32;2.08;;;23.30;41.40;;;;;;7617387;22;83152;-59
2023/04/26 02:16:02;;;;;;;6.38;2.65;;;23.40;41.30;;;;;;7617160;22;81372;-59
2023/04/26 02:19:04;;;;;;;7.65;2.05;;;23.30;41.20;;;;;;7643927;22;80717;-60
2023/04/26 02:22:05;;;;;;;4.63;2.03;;;23.30;41.10;;;;;;7644017;22;80672;-59
2023/04/26 02:25:06;;;;;;;4.50;2.10;;;23.30;41.00;;;;;;7644212;22;81430;-60
2023/04/26 02:28:06;;;;;;;5.00;2.40;;;23.30;41.10;;;;;;7617261;22;80564;-60
2023/04/26 02:31:07;;;;;;;3.85;2.17;;;23.30;41.00;;;;;;7643559;22;81145;-59
2023/04/26 02:34:08;;;;;;;5.00;2.20;;;23.30;41.00;;;;;;7616560;22;83161;-60
2023/04/26 02:37:08;;;;;;;6.32;2.53;;;23.30;40.80;;;;;;7643697;22;80606;-59
2023/04/26 02:40:09;;;;;;;6.85;2.28;;;23.30;40.90;;;;;;7644060;22;80938;-56
2023/04/26 02:43:10;;;;;;;6.45;2.03;;;23.30;40.80;;;;;;7618110;22;82313;-55
2023/04/26 02:46:13;;;;;;;5.13;2.58;;;23.30;40.80;;;;;;7617001;22;80628;-57
2023/04/26 02:49:14;;;;;;;5.78;2.28;;;23.30;40.80;;;;;;7615175;22;83248;-57
2023/04/26 02:52:14;;;;;;;5.55;2.20;;;23.30;40.70;;;;;;7616264;22;80660;-56
2023/04/26 02:55:15;;;;;;;6.15;2.47;;;23.30;40.90;;;;;;7616666;22;80839;-56
2023/04/26 02:58:17;;;;;;;4.05;2.05;;;23.30;40.80;;;;;;7616601;22;83451;-57
2023/04/26 03:01:18;;;;;;;4.43;2.20;;;23.30;40.60;;;;;;7643457;22;80499;-53
2023/04/26 03:04:19;;;;;;;6.93;3.05;;;23.30;40.70;;;;;;7642982;22;80336;-56
2023/04/26 03:07:20;;;;;;;6.35;2.53;;;23.30;40.50;;;;;;7642684;22;80252;-55
2023/04/26 03:10:20;;;;;;;6.38;2.50;;;23.30;40.70;;;;;;7616663;22;82928;-57
2023/04/26 03:13:21;;;;;;;5.82;2.30;;;23.30;40.50;;;;;;7643656;22;80653;-54
2023/04/26 03:16:22;;;;;;;9.70;2.97;;;23.30;40.30;;;;;;7616648;22;83275;-55
2023/04/26 03:19:23;;;;;;;7.80;2.72;;;23.30;40.20;;;;;;7615963;22;82971;-53
2023/04/26 03:22:23;;;;;;;3.25;2.00;;;23.20;40.70;;;;;;7616256;22;83262;-57
2023/04/26 03:25:24;;;;;;;4.95;2.17;;;23.30;40.30;;;;;;7616355;22;82955;-52
2023/04/26 03:28:25;;;;;;;4.40;2.22;;;23.30;40.20;;;;;;7643555;22;81352;-55
2023/04/26 03:31:26;;;;;;;8.93;2.15;;;23.30;40.20;;;;;;7615551;22;83489;-56
2023/04/26 03:34:26;;;;;;;6.18;2.53;;;23.30;40.20;;;;;;7616834;22;81528;-56
2023/04/26 03:37:27;;;;;;;7.28;2.65;;;23.20;40.10;;;;;;7589672;22;83894;-55
2023/04/26 03:40:35;;;;;;;4.40;2.08;;;23.20;39.90;;;;;;7615252;22;83451;-55
2023/04/26 03:43:36;;;;;;;8.52;2.75;;;23.20;39.90;;;;;;7616591;22;83367;-55
2023/04/26 03:46:36;;;;;;;4.13;2.28;;;23.20;39.90;;;;;;7615259;22;83086;-55
2023/04/26 03:49:37;;;;;;;7.63;2.22;;;23.20;40.00;;;;;;7617314;22;81636;-55
2023/04/26 03:52:38;;;;;;;6.93;2.30;;;23.20;40.10;;;;;;7613568;22;83206;-54
2023/04/26 03:55:39;;;;;;;7.95;3.00;;;23.20;39.90;;;;;;7616500;22;83489;-68
2023/04/26 03:58:39;;;;;;;6.82;3.05;;;23.20;40.10;;;;;;7616644;22;83667;-65
2023/04/26 04:01:40;;;;;;;6.50;3.00;;;23.20;39.90;;;;;;7617389;22;82891;-64
2023/04/26 04:04:41;;;;;;;8.45;2.80;;;23.20;39.90;;;;;;7644403;22;80705;-59
2023/04/26 04:07:42;;;;;;;6.22;2.83;;;23.20;39.90;;;;;;7616654;22;83447;-62
2023/04/26 04:10:43;;;;;;;7.60;2.63;;;23.10;40.40;;;;;;7644257;22;80593;-63
2023/04/26 04:13:44;;;;;;;8.32;3.15;;;23.10;39.60;;;;;;7616787;22;82575;-63
2023/04/26 04:16:45;;;;;;;7.40;2.78;;;23.10;39.90;;;;;;7593119;22;81475;-68
2023/04/26 04:19:45;;;;;;;5.70;2.70;;;23.10;40.00;;;;;;7618012;22;83591;-68
2023/04/26 04:22:46;;;;;;;6.20;2.78;;;23.00;40.10;;;;;;7616945;22;82843;-65
2023/04/26 04:25:48;;;;;;;8.95;2.90;;;23.10;40.20;;;;;;7642994;22;80149;-61
2023/04/26 04:28:50;;;;;;;6.03;2.72;;;23.00;40.00;;;;;;7616416;22;84053;-61
2023/04/26 04:31:51;;;;;;;7.45;3.38;;;23.10;39.90;;;;;;7616001;22;83131;-62
2023/04/26 04:34:53;;;;;;;6.95;2.78;;;23.00;40.00;;;;;;7615578;22;83785;-67
2023/04/26 04:37:55;;;;;;;7.82;2.40;;;23.10;40.20;;;;;;7615490;22;81464;-76
2023/04/26 04:40:56;;;;;;;13.07;3.08;;;23.10;40.40;;;;;;7615357;22;82223;-70
2023/04/26 04:43:59;;;;;;;7.15;3.28;;;23.10;40.30;;;;;;7614932;22;83399;-68
2023/04/26 04:47:00;;;;;;;11.00;3.03;;;23.10;40.50;;;;;;7617073;22;82601;-71
2023/04/26 04:50:00;;;;;;;10.88;3.15;;;23.10;40.50;;;;;;7618027;22;82375;-74
2023/04/26 04:53:01;;;;;;;4.72;2.75;;;23.10;40.40;;;;;;7618460;22;83526;-70
2023/04/26 04:56:02;;;;;;;7.72;3.08;;;23.10;40.40;;;;;;7618077;22;82977;-70
2023/04/26 04:59:04;;;;;;;6.18;2.72;;;23.10;40.20;;;;;;7614593;22;83237;-68
2023/04/26 05:02:05;;;;;;;8.48;2.92;;;23.10;40.30;;;;;;7614558;22;83489;-68
2023/04/26 05:05:05;;;;;;;13.20;3.72;;;23.10;40.40;;;;;;7615436;22;83144;-70
2023/04/26 05:08:09;;;;;;;6.35;2.92;;;23.10;40.10;;;;;;7612969;22;83743;-60
2023/04/26 05:11:09;;;;;;;8.70;3.08;;;23.10;40.10;;;;;;7612823;22;83061;-61
2023/04/26 05:14:10;;;;;;;6.65;3.28;;;23.10;39.90;;;;;;7617619;22;83009;-59
2023/04/26 05:17:11;;;;;;;6.53;2.90;;;23.10;39.80;;;;;;7615401;22;80776;-59
2023/04/26 05:20:13;;;;;;;6.55;2.88;;;23.10;40.00;;;;;;7614051;22;82576;-59
2023/04/26 05:23:14;;;;;;;8.82;3.10;;;23.10;39.90;;;;;;7613755;22;83201;-59
2023/04/26 05:26:15;;;;;;;6.57;3.05;;;23.10;39.90;;;;;;7613136;22;83071;-59
2023/04/26 05:29:31;;;;;;;6.43;3.07;;;23.10;39.80;;;;;;7640240;22;80252;-59
2023/04/26 05:32:55;;;;;;;9.02;2.63;;;23.10;39.70;;;;;;7583235;22;80520;-60
2023/04/26 05:36:14;;;;;;;8.65;3.20;;;23.10;39.70;;;;;;7615233;22;82478;-61
2023/04/26 05:39:14;;;;;;;6.25;2.58;;;23.10;39.20;;;;;;7610422;22;83093;-60
2023/04/26 05:42:16;;;;;;;6.28;3.00;;;23.10;39.70;;;;;;7640226;22;80394;-60
2023/04/26 05:45:16;;;;;;;5.85;3.22;;;23.10;39.60;;;;;;7616093;22;80686;-61
2023/04/26 05:48:18;;;;;;;6.22;3.00;;;23.10;39.70;;;;;;7615901;22;82586;-60
2023/04/26 05:51:19;;;;;;;6.15;3.28;;;23.10;39.90;;;;;;7617067;22;80692;-61
2023/04/26 05:54:21;;;;;;;6.55;3.17;;;23.10;39.80;;;;;;7618817;22;81394;-60
2023/04/26 05:57:21;;;;;;;6.95;2.88;;;23.20;39.90;;;;;;7611349;22;83091;-60
2023/04/26 06:00:22;;;;;;;5.53;2.45;;;23.20;39.80;;;;;;7614088;22;83276;-61
2023/04/26 06:03:23;;;;;;;5.80;2.70;;;23.20;39.80;;;;;;7614638;22;83323;-60
2023/04/26 06:06:24;;;;;;;7.88;2.63;;;23.20;39.90;;;;;;7616824;22;81616;-60
2023/04/26 06:09:26;;;;;;;6.55;2.85;;;23.20;40.00;;;;;;7617942;22;84076;-60
2023/04/26 06:12:26;;;;;;;7.30;2.55;;;23.20;39.90;;;;;;7616146;22;83557;-59
2023/04/26 06:15:27;;;;;;;7.63;2.70;;;23.20;39.90;;;;;;7618092;22;83331;-59
2023/04/26 06:18:28;;;;;;;9.07;2.92;;;23.20;39.90;;;;;;7617673;22;82890;-59
2023/04/26 06:21:30;;;;;;;10.90;3.20;;;23.20;39.80;;;;;;7644094;22;80429;-68
2023/04/26 06:24:30;;;;;;;5.97;2.55;;;23.30;39.90;;;;;;7644152;22;80325;-66
2023/04/26 06:27:32;;;;;;;7.45;3.35;;;23.30;39.70;;;;;;7617285;22;82263;-67
2023/04/26 06:30:33;;;;;;;8.63;2.83;;;23.30;39.80;;;;;;7616457;22;83294;-67
2023/04/26 06:33:33;;;;;;;9.00;2.95;;;23.30;39.70;;;;;;7616224;22;81945;-65
2023/04/26 06:36:35;;;;;;;5.78;2.67;;;23.30;39.90;;;;;;7617186;22;83336;-65
2023/04/26 06:39:37;;;;;;;5.82;2.47;;;23.30;39.70;;;;;;7617401;22;82948;-66
2023/04/26 06:42:38;;;;;;;6.32;2.67;;;23.30;39.70;;;;;;7616192;22;83328;-67
2023/04/26 06:46:04;;;;;;;8.63;2.85;;;23.30;39.70;;;;;;7585094;22;84754;-66
2023/04/26 06:49:05;;;;;;;6.63;2.83;;;23.40;39.60;;;;;;7618014;22;82767;-66
2023/04/26 06:52:05;;;;;;;7.85;3.20;;;23.40;39.50;;;;;;7644341;22;80442;-67
2023/04/26 06:55:06;;;;;;;7.35;2.65;;;23.40;39.50;;;;;;7644012;22;80391;-65
2023/04/26 06:58:07;;;;;;;9.23;3.40;;;23.40;39.40;;;;;;7640605;22;80443;-66
2023/04/26 07:01:08;;;;;;;5.75;3.22;;;23.40;39.40;;;;;;7642937;22;80275;-65
2023/04/26 07:04:09;;;;;;;6.25;2.78;;;23.40;39.30;;;;;;7636109;22;82500;-62
2023/04/26 07:07:10;;;;;;;6.03;2.47;;;23.40;39.40;;;;;;7646433;22;80113;-61
2023/04/26 07:10:11;;;;;;;5.38;3.03;;;23.50;39.30;;;;;;7618997;22;82971;-61
2023/04/26 07:13:11;;;;;;;5.68;2.92;;;23.50;39.30;;;;;;7646197;22;80936;-61
2023/04/26 07:16:12;;;;;;;5.95;2.42;;;23.50;39.10;;;;;;7646365;22;81001;-66
2023/04/26 07:19:13;;;;;;;8.15;2.75;;;23.50;39.10;;;;;;7642451;22;80110;-65
2023/04/26 07:22:13;;;;;;;5.10;2.67;;;23.50;39.10;;;;;;7645746;22;81549;-66
2023/04/26 07:25:14;;;;;;;6.35;3.08;;;23.50;39.20;;;;;;7645723;22;80286;-65
2023/04/26 07:28:14;;;;;;;6.78;2.33;;;23.60;39.10;;;;;;7646149;22;81324;-65
2023/04/26 07:31:15;;;;;;;5.53;2.45;;;23.60;39.00;;;;;;7647298;22;80219;-65
2023/04/26 07:34:16;;;;;;;4.05;2.25;;;23.60;39.00;;;;;;7641499;22;80418;-59
2023/04/26 07:37:16;;;;;;;4.38;2.00;;;23.60;38.90;;;;;;7618409;22;80348;-59
2023/04/26 07:40:17;;;;;;;6.53;2.63;;;23.60;39.00;;;;;;7644984;22;80155;-59
2023/04/26 07:43:18;;;;;;;3.90;2.17;;;23.60;39.00;;;;;;7646133;22;80677;-59
2023/04/26 07:46:18;;;;;;;4.93;1.83;;;23.60;38.90;;;;;;7642998;22;81222;-59
2023/04/26 07:49:19;;;;;;;6.00;2.25;;;23.70;38.80;;;;;;7645781;22;80173;-58
2023/04/26 07:52:19;;;;;;;8.75;2.25;;;23.60;38.60;;;;;;7644073;22;80457;-59
2023/04/26 07:55:20;;;;;;;4.70;2.40;;;23.60;38.60;;;;;;7646058;22;80258;-60
2023/04/26 07:58:21;;;;;;;5.00;2.55;;;23.70;38.90;;;;;;7645059;22;80144;-59
2023/04/26 08:01:21;;;;;;;5.53;2.00;;;23.60;38.90;;;;;;7642269;22;80762;-60
2023/04/26 08:04:22;;;;;;;6.28;2.22;;;23.70;38.80;;;;;;7645904;22;80031;-60
2023/04/26 08:07:22;;;;;;;11.88;3.70;;;23.70;38.70;;;;;;7644974;22;81763;-60
2023/04/26 08:10:23;;;;;;;3.28;1.83;;;23.70;38.70;;;;;;7646773;22;80379;-59
2023/04/26 08:13:23;;;;;;;5.85;2.47;;;23.70;38.60;;;;;;7641915;22;80358;-59
2023/04/26 08:16:24;;;;;;;5.30;2.47;;;23.70;38.50;;;;;;7643567;22;80869;-59
2023/04/26 08:19:25;;;;;;;3.75;1.98;;;23.70;38.60;;;;;;7641786;22;80889;-59
2023/04/26 08:22:26;;;;;;;6.10;2.15;;;23.70;38.40;;;;;;7615003;22;81598;-59
2023/04/26 08:25:27;;;;;;;6.20;2.45;;;23.70;38.30;;;;;;7642371;22;80345;-60
2023/04/26 08:28:27;;;;;;;4.65;2.00;;;23.70;38.20;;;;;;7644118;22;81177;-60
2023/04/26 08:31:28;;;;;;;3.22;1.90;;;23.70;38.10;;;;;;7643746;22;80483;-60
2023/04/26 08:34:29;;;;;;;6.20;1.98;;;23.70;38.20;;;;;;7645420;22;80558;-59
2023/04/26 08:37:29;;;;;;;4.15;1.95;;;23.70;38.30;;;;;;7644310;22;80274;-59
2023/04/26 08:40:30;;;;;;;5.03;2.20;;;23.70;38.10;;;;;;7645398;22;80827;-60
2023/04/26 08:43:32;;;;;;;4.30;2.03;;;23.70;38.30;;;;;;7644543;22;79973;-60
2023/04/26 08:46:32;;;;;;;4.97;2.05;;;23.70;38.20;;;;;;7644416;22;80846;-60
2023/04/26 08:49:33;;;;;;;11.02;2.03;;;23.70;38.30;;;;;;7645106;22;80506;-71
2023/04/26 08:52:33;;;;;;;4.88;2.10;;;23.70;38.20;;;;;;7644752;22;80609;-70
2023/04/26 08:55:34;;;;;;;3.85;2.22;;;23.70;38.10;;;;;;7645616;22;80754;-69
2023/04/26 08:58:35;;;;;;;3.67;1.95;;;23.70;38.20;;;;;;7644602;22;82194;-69
2023/04/26 09:01:35;;;;;;;4.13;1.73;;;23.60;38.00;;;;;;7642854;22;81338;-69
2023/04/26 09:04:36;;;;;;;6.43;1.98;;;23.60;37.90;;;;;;7643253;22;80588;-68
2023/04/26 09:07:36;;;;;;;6.90;1.60;;;23.70;38.10;;;;;;7628944;22;80299;-69
2023/04/26 09:10:37;;;;;;;5.18;2.10;;;23.70;38.10;;;;;;7644070;22;79985;-69
2023/04/26 09:13:37;;;;;;;4.45;1.63;;;23.70;38.00;;;;;;7642598;22;81134;-69
2023/04/26 09:16:38;;;;;;;6.78;1.73;;;23.70;38.00;;;;;;7637993;22;80590;-66
2023/04/26 09:19:39;;;;;;;3.67;2.00;;;23.80;38.00;;;;;;7637185;22;80320;-64
2023/04/26 09:22:39;;;;;;;5.97;1.83;;;23.70;38.10;;;;;;7644513;22;80770;-66
2023/04/26 09:25:40;;;;;;;3.53;1.70;;;23.70;38.20;;;;;;7644415;22;80166;-60
2023/04/26 09:28:41;;;;;;;6.25;1.50;;;23.70;38.20;;;;;;7644115;22;80830;-61
2023/04/26 09:31:42;;;;;;;3.58;1.90;;;23.70;38.10;;;;;;7644680;22;80776;-59
2023/04/26 09:34:42;;;;;;;3.65;1.40;;;23.70;38.30;;;;;;7645024;22;80251;-59
2023/04/26 09:37:43;;;;;;;3.95;1.83;;;23.70;38.20;;;;;;7643777;22;81188;-59
2023/04/26 09:40:43;;;;;;;2.03;1.30;;;23.70;38.10;;;;;;7644361;22;80734;-62
2023/04/26 09:43:44;;;;;;;7.13;2.00;;;23.70;38.10;;;;;;7644608;22;79880;-63
2023/04/26 09:46:44;;;;;;;9.50;2.88;;;23.70;38.20;;;;;;7644013;22;80629;-61
2023/04/26 09:49:45;;;;;;;15.93;3.42;;;23.70;38.60;;;;;;7642854;22;80088;-63
2023/04/26 09:52:46;;;;;;;17.05;3.08;;;23.70;39.80;;;;;;7644055;22;80514;-61
2023/04/26 09:55:48;;;;;;;12.45;3.70;;;23.70;40.10;;;;;;7644140;22;80744;-61
2023/04/26 09:58:49;;;;;;;6.65;2.75;;;23.70;40.00;;;;;;7641832;22;80151;-61
2023/04/26 10:01:49;;;;;;;11.23;3.05;;;23.70;40.20;;;;;;7644715;22;80286;-57
2023/04/26 10:04:50;;;;;;;11.93;3.10;;;23.80;40.10;;;;;;7644607;22;80629;-59
2023/04/26 10:07:50;;;;;;;13.45;6.55;;;23.80;39.90;;;;;;7643040;22;80686;-59
2023/04/26 10:10:51;;;;;;;18.95;7.43;;;23.80;39.90;;;;;;7644704;22;80905;-57
2023/04/26 10:13:52;;;;;;;16.77;8.60;;;23.80;40.00;;;;;;7617624;22;81994;-55
2023/04/26 10:16:52;;;;;;;14.13;8.88;;;23.80;40.30;;;;;;7644917;22;80868;-57
2023/04/26 10:19:53;;;;;;;19.88;8.07;;;23.80;40.20;;;;;;7645046;22;81330;-54
2023/04/26 10:22:53;;;;;;;21.35;6.18;;;23.70;40.00;;;;;;7644184;22;80461;-58
2023/04/26 10:25:55;;;;;;;14.43;6.30;;;23.70;40.20;;;;;;7642451;22;80402;-58
2023/04/26 10:28:55;;;;;;;10.52;5.60;;;23.80;40.20;;;;;;7642993;22;80353;-57
2023/04/26 10:31:56;;;;;;;9.73;5.00;;;23.80;40.50;;;;;;7644032;22;80753;-58
2023/04/26 10:34:57;;;;;;;7.80;3.75;;;23.70;40.20;;;;;;7643160;22;80464;-58
2023/04/26 10:37:57;;;;;;;8.07;3.83;;;23.70;40.00;;;;;;7642846;22;80881;-58
2023/04/26 10:40:58;;;;;;;7.00;3.20;;;23.70;40.00;;;;;;7642677;22;80385;-56
2023/04/26 10:43:58;;;;;;;5.43;3.17;;;23.70;39.80;;;;;;7644136;22;80354;-58
2023/04/26 10:46:59;;;;;;;7.68;2.90;;;23.70;39.70;;;;;;7643343;22;80149;-58
2023/04/26 10:49:59;;;;;;;12.60;4.75;;;23.70;39.90;;;;;;7642406;22;80564;-58
2023/04/26 10:53:00;;;;;;;17.50;5.78;;;23.70;40.00;;;;;;7642634;22;80983;-58
2023/04/26 10:56:00;;;;;;;34.60;6.38;;;23.70;40.10;;;;;;7638519;22;81015;-60
2023/04/26 10:59:01;;;;;;;27.65;6.90;;;23.70;40.70;;;;;;7639925;22;80847;-55
2023/04/26 11:02:02;;;;;;;26.20;6.35;;;23.70;41.20;;;;;;7641889;22;80515;-56
2023/04/26 11:05:03;;;;;;;28.67;7.82;;;23.70;41.10;;;;;;7641149;22;80690;-58
2023/04/26 11:08:03;;;;;;;25.75;6.95;;;23.80;41.30;;;;;;7640869;22;80815;-56
2023/04/26 11:11:04;;;;;;;32.03;7.05;;;23.80;41.30;;;;;;7644532;22;80420;-57
2023/04/26 11:14:05;;;;;;;19.92;6.30;;;23.70;41.40;;;;;;7643837;22;82296;-59
2023/04/26 11:17:06;;;;;;;23.05;5.70;;;23.80;42.20;;;;;;7644151;22;80740;-59
2023/04/26 11:20:06;;;;;;;16.35;6.05;;;23.80;43.10;;;;;;7644115;22;80528;-59
2023/04/26 11:23:07;;;;;;;19.80;6.03;;;23.80;44.30;;;;;;7643598;22;81053;-59
2023/04/26 11:26:08;;;;;;;15.82;5.13;;;23.80;44.30;;;;;;7642925;22;81417;-59
2023/04/26 11:29:12;;;;;;;16.17;4.78;;;23.80;43.30;;;;;;7643081;22;80301;-59
2023/04/26 11:32:13;;;;;;;13.65;4.45;;;23.80;42.50;;;;;;7643103;22;80277;-59
2023/04/26 11:35:14;;;;;;;10.55;4.32;;;23.90;42.00;;;;;;7643120;22;80299;-59
2023/04/26 11:38:14;;;;;;;14.90;4.30;;;23.90;41.50;;;;;;7643928;22;80221;-59
2023/04/26 11:41:15;;;;;;;11.23;4.13;;;23.90;41.10;;;;;;7642946;22;80973;-59
2023/04/26 11:44:16;;;;;;;11.93;4.18;;;23.90;41.10;;;;;;7641808;22;80135;-58
2023/04/26 11:47:16;;;;;;;12.90;4.10;;;23.90;40.50;;;;;;7642945;22;80166;-59
2023/04/26 11:50:17;;;;;;;12.40;3.95;;;23.80;40.20;;;;;;7642080;22;80622;-60
2023/04/26 11:53:17;;;;;;;8.70;3.03;;;23.80;40.10;;;;;;7615574;22;82225;-59
2023/04/26 11:56:18;;;;;;;9.57;3.03;;;23.80;39.80;;;;;;7643450;22;81373;-56
2023/04/26 14:28:15;;;;;;;6.03;1.73;;;24.10;37.80;;;;;;7640200;22;80127;-58
2023/04/26 14:31:17;;;;;;;5.05;2.05;;;24.00;37.90;;;;;;7643244;22;82473;-59
2023/04/26 14:34:17;;;;;;;3.92;2.10;;;24.00;37.90;;;;;;7644742;22;79994;-59
2023/04/26 14:37:21;;;;;;;8.32;2.47;;;24.00;37.90;;;;;;7644831;22;80578;-58
2023/04/26 14:40:21;;;;;;;6.43;2.65;;;24.00;37.90;;;;;;7643321;22;79959;-54
2023/04/26 14:43:22;;;;;;;4.72;2.50;;;24.00;37.80;;;;;;7643462;22;80235;-54
2023/04/26 14:46:23;;;;;;;4.25;2.30;;;24.10;37.70;;;;;;7644171;22;81498;-55
2023/04/26 14:49:23;;;;;;;8.02;2.55;;;24.10;37.60;;;;;;7644256;22;80713;-58
2023/04/26 14:52:26;;;;;;;4.50;2.25;;;24.00;37.60;;;;;;7643684;22;80352;-57
2023/04/26 14:55:27;;;;;;;4.72;2.15;;;24.00;37.40;;;;;;7616564;22;83198;-53
2023/04/26 14:58:27;;;;;;;3.17;2.20;;;24.00;37.60;;;;;;7643450;22;80296;-57
2023/04/26 15:01:28;;;;;;;4.07;1.83;;;24.00;37.50;;;;;;7642905;22;82154;-55
2023/04/26 15:04:28;;;;;;;4.03;2.03;;;24.00;37.40;;;;;;7641035;22;80362;-55
2023/04/26 15:07:29;;;;;;;4.28;2.30;;;24.00;37.70;;;;;;7641879;22;80315;-59
2023/04/26 15:10:30;;;;;;;2.63;1.77;;;24.00;37.60;;;;;;7641350;22;80284;-58
2023/04/26 15:13:30;;;;;;;4.53;2.05;;;23.90;37.90;;;;;;7644210;22;81075;-59
2023/04/26 15:16:31;;;;;;;4.85;2.17;;;23.90;38.20;;;;;;7643845;22;80189;-59
2023/04/26 15:19:32;;;;;;;3.92;1.73;;;23.90;38.80;;;;;;7643282;22;81002;-59
2023/04/26 15:22:32;;;;;;;3.90;2.13;;;23.90;39.60;;;;;;7643411;22;80810;-59
2023/04/26 15:25:33;;;;;;;4.78;2.00;;;23.90;39.50;;;;;;7642266;22;80466;-60
2023/04/26 15:28:33;;;;;;;7.28;2.67;;;23.90;39.50;;;;;;7638234;22;80665;-61
2023/04/26 15:31:34;;;;;;;5.55;1.90;;;23.90;39.30;;;;;;7641892;22;80337;-66
2023/04/26 15:34:35;;;;;;;3.13;1.80;;;23.90;39.30;;;;;;7641241;22;80382;-67
2023/04/26 15:37:35;;;;;;;6.65;2.03;;;23.90;39.40;;;;;;7642074;22;86706;-67
2023/04/26 15:40:36;;;;;;;7.88;1.90;;;23.90;39.50;;;;;;7642566;22;80362;-66
2023/04/26 15:43:36;;;;;;;10.07;1.75;;;23.90;39.10;;;;;;7641079;22;80878;-66
2023/04/26 15:46:37;;;;;;;12.80;1.80;;;23.90;39.30;;;;;;7642467;22;80745;-66
2023/04/26 15:49:37;;;;;;;6.05;1.88;;;23.90;39.20;;;;;;7642193;22;80371;-70
2023/04/26 15:52:38;;;;;;;5.90;1.83;;;23.90;39.20;;;;;;7642748;22;81455;-71
2023/04/26 15:55:38;;;;;;;4.25;1.92;;;23.90;39.10;;;;;;7641299;22;80444;-69
2023/04/26 15:58:39;;;;;;;5.72;1.88;;;23.90;39.10;;;;;;7640634;22;80600;-72
2023/04/26 16:01:39;;;;;;;3.83;1.70;;;23.80;39.00;;;;;;7640627;22;79986;-77
2023/04/26 16:04:41;;;;;;;2.17;1.65;;;23.80;39.00;;;;;;7644538;22;80361;-74
2023/04/26 16:07:42;;;;;;;2.83;1.48;;;23.80;39.00;;;;;;7618097;22;80338;-59
2023/04/26 16:10:42;;;;;;;3.95;1.80;;;23.80;39.00;;;;;;7642100;22;80369;-60
2023/04/26 16:13:43;;;;;;;4.15;1.77;;;23.80;38.80;;;;;;7641304;22;80886;-59
2023/04/26 16:16:44;;;;;;;3.10;2.08;;;23.80;38.80;;;;;;7640576;22;80164;-59
2023/04/26 16:19:45;;;;;;;9.20;1.77;;;23.80;38.80;;;;;;7639928;22;80346;-59
2023/04/26 16:22:46;;;;;;;3.97;1.38;;;23.80;38.60;;;;;;7642148;22;80740;-60
2023/04/26 16:25:46;;;;;;;4.60;2.17;;;23.70;38.30;;;;;;7641602;22;80617;-60
2023/04/26 16:28:47;;;;;;;3.45;1.30;;;23.70;38.40;;;;;;7642290;22;80367;-59
2023/04/26 16:31:47;;;;;;;5.90;1.85;;;23.70;38.40;;;;;;7640743;22;80368;-64
2023/04/26 16:34:48;;;;;;;6.57;2.20;;;23.70;38.70;;;;;;7642048;22;80122;-60
2023/04/26 16:37:48;;;;;;;7.68;2.20;;;23.70;38.90;;;;;;7641507;22;80424;-59
2023/04/26 16:40:49;;;;;;;3.83;2.10;;;23.70;38.90;;;;;;7640978;22;80307;-58
2023/04/26 16:43:51;;;;;;;5.38;1.65;;;23.70;38.90;;;;;;7641194;22;80436;-58
2023/04/26 16:46:52;;;;;;;5.70;1.92;;;23.70;39.20;;;;;;7643039;22;80708;-60
2023/04/26 16:49:52;;;;;;;10.23;2.15;;;23.70;39.20;;;;;;7643597;22;80146;-59
2023/04/26 16:52:53;;;;;;;4.88;2.00;;;23.70;39.10;;;;;;7643962;22;81655;-61
2023/04/26 16:55:54;;;;;;;4.75;1.73;;;23.70;39.60;;;;;;7642985;22;80266;-60
2023/04/26 16:58:54;;;;;;;5.25;1.80;;;23.80;39.70;;;;;;7642250;22;80268;-60
2023/04/26 17:01:55;;;;;;;10.40;2.58;;;23.70;39.70;;;;;;7641479;22;81261;-61
2023/04/26 17:04:56;;;;;;;8.95;2.22;;;23.70;39.70;;;;;;7641731;22;80455;-68
2023/04/26 17:07:56;;;;;;;14.77;2.47;;;23.70;39.80;;;;;;7643591;22;80258;-67
2023/04/26 17:10:57;;;;;;;5.13;1.85;;;23.70;40.10;;;;;;7642616;22;80675;-63
2023/04/26 17:13:57;;;;;;;6.32;1.90;;;23.70;40.00;;;;;;7642515;22;80386;-66
2023/04/26 17:16:58;;;;;;;7.43;2.30;;;23.70;40.20;;;;;;7632666;22;80858;-66
2023/04/26 17:19:58;;;;;;;8.65;2.60;;;23.70;40.70;;;;;;7634180;22;81060;-64
2023/04/26 17:22:59;;;;;;;6.88;2.20;;;23.70;41.20;;;;;;7641343;22;81772;-66
2023/04/26 17:35:47;;;;;;;6.33;1.77;;;23.70;41.90;;;;;;7642039;22;82048;-63
2023/04/26 17:38:48;;;;;;;7.35;2.38;;;23.70;41.60;;;;;;7642855;22;81090;-67
2023/04/26 17:41:50;;;;;;;3.47;1.42;;;23.70;41.10;;;;;;7641848;22;80119;-67
2023/04/26 17:44:50;;;;;;;4.22;1.85;;;23.70;40.70;;;;;;7616576;22;80909;-68
2023/04/26 17:47:51;;;;;;;3.30;1.80;;;23.70;40.40;;;;;;7642781;22;80343;-70
2023/04/26 17:50:52;;;;;;;6.13;1.73;;;23.70;40.10;;;;;;7642627;22;80170;-69
2023/04/26 17:53:52;;;;;;;4.15;1.33;;;23.60;39.60;;;;;;7643063;22;80534;-77
2023/04/26 17:56:53;;;;;;;4.70;1.83;;;23.60;39.70;;;;;;7616558;22;82298;-68
2023/04/26 17:59:53;;;;;;;3.20;1.90;;;23.60;39.50;;;;;;7641783;22;80362;-58
2023/04/26 18:02:56;;;;;;;4.93;2.05;;;23.60;39.10;;;;;;7641441;22;80297;-58
2023/04/26 18:05:56;;;;;;;5.75;1.77;;;23.60;39.10;;;;;;7642294;22;80742;-60
2023/04/26 18:08:57;;;;;;;5.25;1.80;;;23.60;38.80;;;;;;7637054;22;81605;-59
2023/04/26 18:11:57;;;;;;;3.80;1.70;;;23.60;39.00;;;;;;7645123;22;79989;-59
2023/04/26 18:14:58;;;;;;;5.43;1.95;;;23.60;39.20;;;;;;7642782;22;80923;-58
2023/04/26 18:17:58;;;;;;;3.30;1.80;;;23.60;39.50;;;;;;7642698;22;80658;-60